Time,TemperatureF,DewpointF,PressureIn,WindDirection,WindDirectionDegrees,WindSpeedMPH,WindSpeedGustMPH,Humidity,HourlyPrecipIn,Conditions,Clouds,dailyrainin,SolarRadiationWatts/m^2,SoftwareType,DateUTC
2013-06-21 00:00:00,65.0,55.8,30.25,East,82,1.0,1.0,72,0.00,,,0.00,0,Wunderground v.1.15,2013-06-21 04:00:00,
2013-06-21 00:02:00,65.0,55.8,30.25,East,82,1.0,1.0,72,0.00,,,0.00,0,Wunderground v.1.15,2013-06-21 04:02:00,
2013-06-21 00:04:00,64.8,55.9,30.25,East,82,0.0,1.0,73,0.00,,,0.00,0,Wunderground v.1.15,2013-06-21 04:04:00,
2013-06-21 00:06:00,64.8,55.9,30.25,East,82,0.0,1.0,73,0.00,,,0.00,0,Wunderground v.1.15,2013-06-21 04:06:00,
2013-06-21 00:12:00,64.5,56.0,30.25,East,82,0.0,0.0,74,0.00,,,0.00,0,Wunderground v.1.15,2013-06-21 04:12:00,
2013-06-21 00:16:00,64.3,55.8,30.25,East,82,0.0,0.0,74,0.00,,,0.00,0,Wunderground v.1.15,2013-06-21 04:16:00,
2013-06-21 00:22:00,64.2,56.1,30.25,East,82,0.0,0.0,75,0.00,,,0.00,0,Wunderground v.1.15,2013-06-21 04:22:00,
2013-06-21 00:24:00,64.0,55.9,30.25,East,82,0.0,0.0,75,0.00,,,0.00,0,Wunderground v.1.15,2013-06-21 04:24:00,
2013-06-21 00:30:00,63.9,56.2,30.24,East,82,0.0,0.0,76,0.00,,,0.00,0,Wunderground v.1.15,2013-06-21 04:30:00,
2013-06-21 00:36:00,63.5,55.8,30.24,East,82,0.0,1.0,76,0.00,,,0.00,0,Wunderground v.1.15,2013-06-21 04:36:00,
2013-06-21 00:42:00,63.2,55.5,30.24,East,82,0.0,1.0,76,0.00,,,0.00,0,Wunderground v.1.15,2013-06-21 04:42:00,
2013-06-21 00:48:00,62.9,55.2,30.24,East,82,0.0,1.0,76,0.00,,,0.00,0,Wunderground v.1.15,2013-06-21 04:48:00,
2013-06-21 00:54:00,62.6,55.3,30.24,East,82,0.0,0.0,77,0.00,,,0.00,0,Wunderground v.1.15,2013-06-21 04:54:00,
2013-06-21 01:00:00,62.4,55.1,30.23,East,82,0.0,0.0,77,0.00,,,0.00,0,Wunderground v.1.15,2013-06-21 05:00:00,
2013-06-21 01:06:00,62.1,54.8,30.23,East,82,0.0,0.0,77,0.00,,,0.00,0,Wunderground v.1.15,2013-06-21 05:06:00,
2013-06-21 01:12:00,62.0,55.1,30.23,East,82,0.0,0.0,78,0.00,,,0.00,0,Wunderground v.1.15,2013-06-21 05:12:00,
2013-06-21 01:18:00,61.6,55.0,30.23,East,82,0.0,0.0,79,0.00,,,0.00,0,Wunderground v.1.15,2013-06-21 05:18:00,
2013-06-21 01:24:00,61.5,55.3,30.23,East,82,0.0,0.0,80,0.00,,,0.00,0,Wunderground v.1.15,2013-06-21 05:24:00,
2013-06-21 01:30:00,61.2,55.0,30.23,East,82,0.0,0.0,80,0.00,,,0.00,0,Wunderground v.1.15,2013-06-21 05:30:00,
2013-06-21 01:36:00,61.0,54.8,30.23,East,82,0.0,0.0,80,0.00,,,0.00,0,Wunderground v.1.15,2013-06-21 05:36:00,
2013-06-21 01:42:00,60.7,54.8,30.23,East,82,0.0,1.0,81,0.00,,,0.00,0,Wunderground v.1.15,2013-06-21 05:42:00,
2013-06-21 01:48:00,60.5,54.6,30.23,East,82,0.0,2.0,81,0.00,,,0.00,0,Wunderground v.1.15,2013-06-21 05:48:00,
2013-06-21 01:54:00,60.2,54.3,30.23,East,82,0.0,1.0,81,0.00,,,0.00,0,Wunderground v.1.15,2013-06-21 05:54:00,
2013-06-21 02:00:00,60.1,54.2,30.23,East,82,1.0,1.0,81,0.00,,,0.00,0,Wunderground v.1.15,2013-06-21 06:00:00,
2013-06-21 02:06:00,59.9,54.4,30.23,East,82,0.0,2.0,82,0.00,,,0.00,0,Wunderground v.1.15,2013-06-21 06:06:00,
2013-06-21 02:12:00,59.8,54.3,30.23,East,82,0.0,0.0,82,0.00,,,0.00,0,Wunderground v.1.15,2013-06-21 06:12:00,
2013-06-21 02:18:00,59.6,54.4,30.23,East,82,0.0,0.0,83,0.00,,,0.00,0,Wunderground v.1.15,2013-06-21 06:18:00,
2013-06-21 02:24:00,59.5,54.3,30.23,East,82,0.0,2.0,83,0.00,,,0.00,0,Wunderground v.1.15,2013-06-21 06:24:00,
2013-06-21 02:30:00,59.3,54.5,30.22,East,82,0.0,0.0,84,0.00,,,0.00,0,Wunderground v.1.15,2013-06-21 06:30:00,
2013-06-21 02:36:00,59.3,54.5,30.22,East,82,0.0,0.0,84,0.00,,,0.00,0,Wunderground v.1.15,2013-06-21 06:36:00,
2013-06-21 02:42:00,59.2,54.7,30.22,East,82,0.0,0.0,85,0.00,,,0.00,0,Wunderground v.1.15,2013-06-21 06:42:00,
2013-06-21 02:48:00,59.0,54.5,30.22,East,82,0.0,0.0,85,0.00,,,0.00,0,Wunderground v.1.15,2013-06-21 06:48:00,
2013-06-21 02:54:00,58.9,54.4,30.22,East,82,0.0,0.0,85,0.00,,,0.00,0,Wunderground v.1.15,2013-06-21 06:54:00,
2013-06-21 03:00:00,58.7,54.5,30.23,East,82,0.0,0.0,86,0.00,,,0.00,0,Wunderground v.1.15,2013-06-21 07:00:00,
2013-06-21 03:06:00,58.6,54.7,30.23,East,82,0.0,0.0,87,0.00,,,0.00,0,Wunderground v.1.15,2013-06-21 07:06:00,
2013-06-21 03:12:00,58.6,54.7,30.23,East,82,0.0,0.0,87,0.00,,,0.00,0,Wunderground v.1.15,2013-06-21 07:12:00,
2013-06-21 03:18:00,58.4,54.9,30.23,East,82,0.0,0.0,88,0.00,,,0.00,0,Wunderground v.1.15,2013-06-21 07:18:00,
2013-06-21 03:24:00,58.3,54.8,30.23,East,82,0.0,0.0,88,0.00,,,0.00,0,Wunderground v.1.15,2013-06-21 07:24:00,
2013-06-21 03:30:00,58.3,55.1,30.23,East,82,0.0,0.0,89,0.00,,,0.00,0,Wunderground v.1.15,2013-06-21 07:30:00,
2013-06-21 03:36:00,58.1,54.9,30.23,East,82,0.0,0.0,89,0.00,,,0.00,0,Wunderground v.1.15,2013-06-21 07:36:00,
2013-06-21 03:42:00,58.0,54.8,30.23,East,82,0.0,0.0,89,0.00,,,0.00,0,Wunderground v.1.15,2013-06-21 07:42:00,
2013-06-21 03:48:00,57.8,54.9,30.23,East,82,0.0,0.0,90,0.00,,,0.00,0,Wunderground v.1.15,2013-06-21 07:48:00,
2013-06-21 03:54:00,57.5,54.6,30.23,East,82,0.0,0.0,90,0.00,,,0.00,0,Wunderground v.1.15,2013-06-21 07:54:00,
2013-06-21 04:00:00,57.5,54.6,30.23,East,82,0.0,0.0,90,0.00,,,0.00,0,Wunderground v.1.15,2013-06-21 08:00:00,
2013-06-21 04:08:00,57.3,54.7,30.23,East,82,0.0,0.0,91,0.00,,,0.00,0,Wunderground v.1.15,2013-06-21 08:08:00,
2013-06-21 04:14:00,57.2,54.6,30.23,East,82,0.0,2.0,91,0.00,,,0.00,0,Wunderground v.1.15,2013-06-21 08:14:00,
2013-06-21 04:20:00,57.2,54.6,30.23,East,82,1.0,1.0,91,0.00,,,0.00,0,Wunderground v.1.15,2013-06-21 08:20:00,
2013-06-21 04:26:00,57.2,54.9,30.23,East,82,1.0,1.0,92,0.00,,,0.00,0,Wunderground v.1.15,2013-06-21 08:26:00,
2013-06-21 04:32:00,57.0,54.7,30.23,East,82,0.0,2.0,92,0.00,,,0.00,0,Wunderground v.1.15,2013-06-21 08:32:00,
2013-06-21 04:38:00,57.0,55.0,30.23,East,82,1.0,2.0,93,0.00,,,0.00,0,Wunderground v.1.15,2013-06-21 08:38:00,
2013-06-21 04:44:00,56.9,54.9,30.23,East,82,0.0,1.0,93,0.00,,,0.00,0,Wunderground v.1.15,2013-06-21 08:44:00,
2013-06-21 04:50:00,56.7,54.7,30.23,East,82,0.0,0.0,93,0.00,,,0.00,0,Wunderground v.1.15,2013-06-21 08:50:00,
2013-06-21 04:56:00,56.7,54.7,30.23,East,82,0.0,0.0,93,0.00,,,0.00,0,Wunderground v.1.15,2013-06-21 08:56:00,
2013-06-21 05:02:00,56.6,54.6,30.23,East,82,0.0,0.0,93,0.00,,,0.00,0,Wunderground v.1.15,2013-06-21 09:02:00,
2013-06-21 05:08:00,56.5,54.8,30.23,East,82,0.0,0.0,94,0.00,,,0.00,0,Wunderground v.1.15,2013-06-21 09:08:00,
2013-06-21 05:14:00,56.5,54.8,30.23,East,82,0.0,0.0,94,0.00,,,0.00,0,Wunderground v.1.15,2013-06-21 09:14:00,
2013-06-21 05:20:00,56.3,54.6,30.24,East,82,0.0,0.0,94,0.00,,,0.00,0,Wunderground v.1.15,2013-06-21 09:20:00,
2013-06-21 05:26:00,56.2,54.5,30.24,East,82,0.0,0.0,94,0.00,,,0.00,0,Wunderground v.1.15,2013-06-21 09:26:00,
2013-06-21 05:32:00,56.2,54.5,30.25,North,3,0.0,2.0,94,0.00,,,0.00,0,Wunderground v.1.15,2013-06-21 09:32:00,
2013-06-21 05:38:00,56.2,54.5,30.25,North,11,2.0,3.0,94,0.00,,,0.00,0,Wunderground v.1.15,2013-06-21 09:38:00,
2013-06-21 05:44:00,56.5,55.1,30.25,North,1,2.0,3.0,95,0.00,,,0.00,0,Wunderground v.1.15,2013-06-21 09:44:00,
2013-06-21 05:50:00,56.7,55.3,30.25,NNE,27,2.0,5.0,95,0.00,,,0.00,0,Wunderground v.1.15,2013-06-21 09:50:00,
2013-06-21 05:56:00,56.9,55.5,30.25,NE,45,2.0,4.0,95,0.00,,,0.00,5,Wunderground v.1.15,2013-06-21 09:56:00,
2013-06-21 06:02:00,57.2,55.8,30.25,North,359,3.0,5.0,95,0.00,,,0.00,5,Wunderground v.1.15,2013-06-21 10:02:00,
2013-06-21 06:08:00,57.2,55.8,30.25,NNE,24,2.0,5.0,95,0.00,,,0.00,9,Wunderground v.1.15,2013-06-21 10:08:00,
2013-06-21 06:14:00,57.5,56.1,30.25,North,3,2.0,5.0,95,0.00,,,0.00,11,Wunderground v.1.15,2013-06-21 10:14:00,
2013-06-21 06:20:00,57.5,56.1,30.24,NNE,32,3.0,5.0,95,0.00,,,0.00,14,Wunderground v.1.15,2013-06-21 10:20:00,
2013-06-21 06:26:00,58.0,56.6,30.24,NNE,30,3.0,5.0,95,0.00,,,0.00,18,Wunderground v.1.15,2013-06-21 10:26:00,
2013-06-21 06:32:00,58.1,56.7,30.24,NNE,13,3.0,5.0,95,0.00,,,0.00,19,Wunderground v.1.15,2013-06-21 10:32:00,
2013-06-21 06:38:00,58.4,57.0,30.24,NE,34,4.0,5.0,95,0.00,,,0.00,25,Wunderground v.1.15,2013-06-21 10:38:00,
2013-06-21 06:44:00,58.6,57.2,30.24,NNE,28,3.0,4.0,95,0.00,,,0.00,26,Wunderground v.1.15,2013-06-21 10:44:00,
2013-06-21 06:50:00,58.7,57.0,30.24,North,359,3.0,3.0,94,0.00,,,0.00,28,Wunderground v.1.15,2013-06-21 10:50:00,
2013-06-21 06:56:00,58.9,57.2,30.24,NNE,25,2.0,5.0,94,0.00,,,0.00,32,Wunderground v.1.15,2013-06-21 10:56:00,
2013-06-21 07:02:00,59.2,57.8,30.25,NNE,13,3.0,5.0,95,0.00,,,0.00,35,Wunderground v.1.15,2013-06-21 11:02:00,
2013-06-21 07:08:00,59.5,57.8,30.25,North,4,4.0,5.0,94,0.00,,,0.00,37,Wunderground v.1.15,2013-06-21 11:08:00,
2013-06-21 07:14:00,59.8,58.1,30.25,NW,313,4.0,6.0,94,0.00,,,0.00,40,Wunderground v.1.15,2013-06-21 11:14:00,
2013-06-21 07:20:00,59.9,58.2,30.25,NNE,27,3.0,3.0,94,0.00,,,0.00,42,Wunderground v.1.15,2013-06-21 11:20:00,
2013-06-21 07:26:00,60.1,58.4,30.25,ENE,62,3.0,5.0,94,0.00,,,0.00,44,Wunderground v.1.15,2013-06-21 11:26:00,
2013-06-21 07:32:00,60.4,58.7,30.25,North,359,3.0,3.0,94,0.00,,,0.00,46,Wunderground v.1.15,2013-06-21 11:32:00,
2013-06-21 07:38:00,60.7,59.0,30.25,NE,42,4.0,5.0,94,0.00,,,0.00,48,Wunderground v.1.15,2013-06-21 11:38:00,
2013-06-21 07:44:00,61.2,59.2,30.25,North,357,4.0,5.0,93,0.00,,,0.00,49,Wunderground v.1.15,2013-06-21 11:44:00,
2013-06-21 07:50:00,61.5,59.5,30.25,ENE,73,4.0,7.0,93,0.00,,,0.00,51,Wunderground v.1.15,2013-06-21 11:50:00,
2013-06-21 07:56:00,62.0,59.6,30.25,NW,313,4.0,7.0,92,0.00,,,0.00,53,Wunderground v.1.15,2013-06-21 11:56:00,
2013-06-21 08:02:00,62.3,59.9,30.25,NE,55,5.0,5.0,92,0.00,,,0.00,55,Wunderground v.1.15,2013-06-21 12:02:00,
2013-06-21 08:08:00,62.7,60.0,30.25,NE,34,6.0,11.0,91,0.00,,,0.00,58,Wunderground v.1.15,2013-06-21 12:08:00,
2013-06-21 08:14:00,63.1,60.4,30.25,NE,34,6.0,6.0,91,0.00,,,0.00,77,Wunderground v.1.15,2013-06-21 12:14:00,
2013-06-21 08:20:00,63.4,60.4,30.25,East,80,5.0,5.0,90,0.00,,,0.00,375,Wunderground v.1.15,2013-06-21 12:20:00,
2013-06-21 08:26:00,63.9,60.9,30.25,ENE,62,6.0,10.0,90,0.00,,,0.00,401,Wunderground v.1.15,2013-06-21 12:26:00,
2013-06-21 08:32:00,64.3,60.7,30.26,NNW,343,6.0,10.0,88,0.00,,,0.00,419,Wunderground v.1.15,2013-06-21 12:32:00,
2013-06-21 08:38:00,65.0,61.0,30.26,ENE,73,5.0,10.0,87,0.00,,,0.00,445,Wunderground v.1.15,2013-06-21 12:38:00,
2013-06-21 08:44:00,65.8,61.2,30.26,ENE,64,4.0,7.0,85,0.00,,,0.00,465,Wunderground v.1.15,2013-06-21 12:44:00,
2013-06-21 08:50:00,66.8,61.8,30.25,NNE,31,4.0,4.0,84,0.00,,,0.00,480,Wunderground v.1.15,2013-06-21 12:50:00,
2013-06-21 08:56:00,67.4,61.7,30.25,NE,35,3.0,5.0,82,0.00,,,0.00,507,Wunderground v.1.15,2013-06-21 12:56:00,
2013-06-21 09:02:00,67.8,60.7,30.26,NNE,32,4.0,4.0,78,0.00,,,0.00,528,Wunderground v.1.15,2013-06-21 13:02:00,
2013-06-21 09:08:00,68.3,60.8,30.26,NNE,27,4.0,7.0,77,0.00,,,0.00,545,Wunderground v.1.15,2013-06-21 13:08:00,
2013-06-21 09:14:00,68.6,60.0,30.26,NE,51,6.0,7.0,74,0.00,,,0.00,568,Wunderground v.1.15,2013-06-21 13:14:00,
2013-06-21 09:20:00,69.6,61.3,30.26,ESE,102,5.0,7.0,75,0.00,,,0.00,586,Wunderground v.1.15,2013-06-21 13:20:00,
2013-06-21 09:26:00,70.1,61.0,30.26,NNE,13,5.0,7.0,73,0.00,,,0.00,600,Wunderground v.1.15,2013-06-21 13:26:00,
2013-06-21 09:32:00,70.4,59.3,30.26,ENE,62,6.0,7.0,68,0.00,,,0.00,625,Wunderground v.1.15,2013-06-21 13:32:00,
2013-06-21 09:38:00,70.6,58.3,30.26,NNE,17,8.0,8.0,65,0.00,,,0.00,642,Wunderground v.1.15,2013-06-21 13:38:00,
2013-06-21 09:44:00,71.1,57.9,30.26,ENE,76,8.0,8.0,63,0.00,,,0.00,662,Wunderground v.1.15,2013-06-21 13:44:00,
2013-06-21 09:50:00,71.8,59.4,30.26,NNE,25,7.0,10.0,65,0.00,,,0.00,672,Wunderground v.1.15,2013-06-21 13:50:00,
2013-06-21 09:56:00,72.0,57.8,30.26,NNE,16,7.0,11.0,61,0.00,,,0.00,699,Wunderground v.1.15,2013-06-21 13:56:00,
2013-06-21 10:02:00,72.5,57.4,30.25,NE,51,6.0,7.0,59,0.00,,,0.00,707,Wunderground v.1.15,2013-06-21 14:02:00,
2013-06-21 10:10:00,73.5,58.8,30.25,NE,48,6.0,6.0,60,0.00,,,0.00,734,Wunderground v.1.15,2013-06-21 14:10:00,
2013-06-21 10:16:00,73.5,56.3,30.25,North,11,5.0,6.0,55,0.00,,,0.00,753,Wunderground v.1.15,2013-06-21 14:16:00,
2013-06-21 10:22:00,73.7,55.5,30.25,NNE,25,6.0,7.0,53,0.00,,,0.00,767,Wunderground v.1.15,2013-06-21 14:22:00,
2013-06-21 10:28:00,74.4,57.7,30.25,NNE,30,6.0,7.0,56,0.00,,,0.00,787,Wunderground v.1.15,2013-06-21 14:28:00,
2013-06-21 10:34:00,75.1,56.3,30.25,North,0,5.0,5.0,52,0.00,,,0.00,799,Wunderground v.1.15,2013-06-21 14:34:00,
2013-06-21 10:40:00,75.4,55.5,30.25,NE,54,6.0,7.0,50,0.00,,,0.00,808,Wunderground v.1.15,2013-06-21 14:40:00,
2013-06-21 10:46:00,75.4,56.0,30.25,North,0,6.0,7.0,51,0.00,,,0.00,820,Wunderground v.1.15,2013-06-21 14:46:00,
2013-06-21 10:52:00,75.8,56.4,30.25,NNE,18,5.0,7.0,51,0.00,,,0.00,834,Wunderground v.1.15,2013-06-21 14:52:00,
2013-06-21 10:58:00,76.1,57.7,30.25,NE,44,5.0,8.0,53,0.00,,,0.00,848,Wunderground v.1.15,2013-06-21 14:58:00,
2013-06-21 11:04:00,76.5,54.2,30.25,NE,47,4.0,9.0,46,0.00,,,0.00,860,Wunderground v.1.15,2013-06-21 15:04:00,
2013-06-21 11:11:00,77.0,57.5,30.25,North,359,5.0,5.0,51,0.00,,,0.00,867,Wunderground v.1.15,2013-06-21 15:11:00,
2013-06-21 11:16:00,76.7,53.8,30.25,NNE,14,5.0,6.0,45,0.00,,,0.00,878,Wunderground v.1.15,2013-06-21 15:16:00,
2013-06-21 11:22:00,76.8,55.6,30.25,NE,44,5.0,5.0,48,0.00,,,0.00,885,Wunderground v.1.15,2013-06-21 15:22:00,
2013-06-21 11:28:00,77.6,55.8,30.25,East,86,5.0,7.0,47,0.00,,,0.00,896,Wunderground v.1.15,2013-06-21 15:28:00,
2013-06-21 11:34:00,77.6,55.2,30.25,North,3,5.0,5.0,46,0.00,,,0.00,906,Wunderground v.1.15,2013-06-21 15:34:00,
2013-06-21 11:40:00,77.4,52.5,30.25,North,0,5.0,11.0,42,0.00,,,0.00,913,Wunderground v.1.15,2013-06-21 15:40:00,
2013-06-21 11:46:00,77.6,56.4,30.25,ENE,71,6.0,7.0,48,0.00,,,0.00,917,Wunderground v.1.15,2013-06-21 15:46:00,
2013-06-21 11:52:00,77.9,55.5,30.25,NNE,16,6.0,6.0,46,0.00,,,0.00,929,Wunderground v.1.15,2013-06-21 15:52:00,
2013-06-21 11:58:00,78.1,53.8,30.25,NNE,31,4.0,6.0,43,0.00,,,0.00,934,Wunderground v.1.15,2013-06-21 15:58:00,
2013-06-21 12:04:00,79.2,56.6,30.25,North,1,3.0,4.0,46,0.00,,,0.00,941,Wunderground v.1.15,2013-06-21 16:04:00,
2013-06-21 12:11:00,79.6,55.1,30.25,East,92,4.0,7.0,43,0.00,,,0.00,948,Wunderground v.1.15,2013-06-21 16:11:00,
2013-06-21 12:16:00,79.8,54.7,30.25,SE,141,5.0,7.0,42,0.00,,,0.00,952,Wunderground v.1.15,2013-06-21 16:16:00,
2013-06-21 12:22:00,79.8,55.3,30.25,NE,38,5.0,5.0,43,0.00,,,0.00,957,Wunderground v.1.15,2013-06-21 16:22:00,
2013-06-21 12:28:00,79.6,53.8,30.25,East,100,5.0,7.0,41,0.00,,,0.00,961,Wunderground v.1.15,2013-06-21 16:28:00,
2013-06-21 12:34:00,79.6,54.5,30.25,SE,140,4.0,7.0,42,0.00,,,0.00,964,Wunderground v.1.15,2013-06-21 16:34:00,
2013-06-21 12:40:00,79.6,54.5,30.25,North,7,5.0,5.0,42,0.00,,,0.00,964,Wunderground v.1.15,2013-06-21 16:40:00,
2013-06-21 12:46:00,80.1,57.5,30.25,NE,55,4.0,5.0,46,0.00,,,0.00,966,Wunderground v.1.15,2013-06-21 16:46:00,
2013-06-21 12:52:00,80.1,54.9,30.25,ENE,71,4.0,5.0,42,0.00,,,0.00,968,Wunderground v.1.15,2013-06-21 16:52:00,
2013-06-21 12:58:00,81.1,56.5,30.25,East,88,3.0,7.0,43,0.00,,,0.00,971,Wunderground v.1.15,2013-06-21 16:58:00,
2013-06-21 13:04:00,81.2,59.1,30.24,East,86,3.0,8.0,47,0.00,,,0.00,973,Wunderground v.1.15,2013-06-21 17:04:00,
2013-06-21 13:10:00,81.2,55.9,30.24,NE,45,4.0,5.0,42,0.00,,,0.00,970,Wunderground v.1.15,2013-06-21 17:10:00,
2013-06-21 13:16:00,80.9,52.2,30.25,NE,44,4.0,5.0,37,0.00,,,0.00,971,Wunderground v.1.15,2013-06-21 17:16:00,
2013-06-21 13:22:00,81.2,56.6,30.25,East,82,3.0,6.0,43,0.00,,,0.00,970,Wunderground v.1.15,2013-06-21 17:22:00,
2013-06-21 13:28:00,81.6,58.8,30.25,East,99,4.0,7.0,46,0.00,,,0.00,970,Wunderground v.1.15,2013-06-21 17:28:00,
2013-06-21 13:36:00,81.6,58.2,30.24,SSE,151,4.0,7.0,45,0.00,,,0.00,966,Wunderground v.1.15,2013-06-21 17:36:00,
2013-06-21 13:42:00,81.4,56.8,30.24,ENE,75,4.0,5.0,43,0.00,,,0.00,962,Wunderground v.1.15,2013-06-21 17:42:00,
2013-06-21 13:46:00,81.8,59.0,30.23,NE,42,5.0,6.0,46,0.00,,,0.00,962,Wunderground v.1.15,2013-06-21 17:46:00,
2013-06-21 13:48:00,82.0,59.8,30.23,NE,41,5.0,6.0,47,0.00,,,0.00,961,Wunderground v.1.15,2013-06-21 17:48:00,
2013-06-21 13:50:00,82.2,59.4,30.23,ENE,68,6.0,6.0,46,0.00,,,0.00,961,Wunderground v.1.15,2013-06-21 17:50:00,
2013-06-21 13:56:00,81.8,58.4,30.23,NE,47,5.0,7.0,45,0.00,,,0.00,957,Wunderground v.1.15,2013-06-21 17:56:00,
2013-06-21 14:02:00,82.0,61.0,30.23,NNE,30,4.0,10.0,49,0.00,,,0.00,950,Wunderground v.1.15,2013-06-21 18:02:00,
2013-06-21 14:04:00,82.2,60.6,30.23,East,86,4.0,10.0,48,0.00,,,0.00,952,Wunderground v.1.15,2013-06-21 18:04:00,
2013-06-21 14:08:00,82.4,60.7,30.23,ENE,73,4.0,10.0,48,0.00,,,0.00,964,Wunderground v.1.15,2013-06-21 18:08:00,
2013-06-21 14:14:00,82.8,61.1,30.23,East,95,4.0,4.0,48,0.00,,,0.00,1017,Wunderground v.1.15,2013-06-21 18:14:00,
2013-06-21 14:20:00,82.8,62.3,30.23,ENE,61,4.0,4.0,50,0.00,,,0.00,1070,Wunderground v.1.15,2013-06-21 18:20:00,
2013-06-21 14:24:00,83.4,63.9,30.23,NNE,24,5.0,10.0,52,0.00,,,0.00,1093,Wunderground v.1.15,2013-06-21 18:24:00,
2013-06-21 14:26:00,83.4,62.8,30.23,NNE,16,6.0,10.0,50,0.00,,,0.00,1096,Wunderground v.1.15,2013-06-21 18:26:00,
2013-06-21 14:30:00,83.6,61.2,30.23,NNE,28,6.0,6.0,47,0.00,,,0.00,1093,Wunderground v.1.15,2013-06-21 18:30:00,
2013-06-21 14:32:00,83.6,61.2,30.23,NE,41,6.0,6.0,47,0.00,,,0.00,1093,Wunderground v.1.15,2013-06-21 18:32:00,
2013-06-21 14:36:00,83.8,60.2,30.23,ENE,64,5.0,6.0,45,0.00,,,0.00,1124,Wunderground v.1.15,2013-06-21 18:36:00,
2013-06-21 14:42:00,84.0,62.2,30.23,NNW,347,3.0,4.0,48,0.00,,,0.00,1050,Wunderground v.1.15,2013-06-21 18:42:00,
2013-06-21 14:46:00,84.9,63.0,30.23,ESE,102,5.0,12.0,48,0.00,,,0.00,1050,Wunderground v.1.15,2013-06-21 18:46:00,
2013-06-21 14:48:00,84.5,61.4,30.23,ESE,106,5.0,12.0,46,0.00,,,0.00,1050,Wunderground v.1.15,2013-06-21 18:48:00,
2013-06-21 14:50:00,84.0,62.8,30.23,ENE,65,6.0,7.0,49,0.00,,,0.00,479,Wunderground v.1.15,2013-06-21 18:50:00,
2013-06-21 14:56:00,82.8,62.3,30.23,ENE,66,6.0,7.0,50,0.00,,,0.00,447,Wunderground v.1.15,2013-06-21 18:56:00,
2013-06-21 14:58:00,82.6,62.1,30.23,NNE,24,6.0,7.0,50,0.00,,,0.00,447,Wunderground v.1.15,2013-06-21 18:58:00,
2013-06-21 15:04:00,82.2,63.4,30.23,ENE,62,5.0,7.0,53,0.00,,,0.00,741,Wunderground v.1.15,2013-06-21 19:04:00,
2013-06-21 15:06:00,82.6,62.6,30.23,NNE,20,5.0,7.0,51,0.00,,,0.00,741,Wunderground v.1.15,2013-06-21 19:06:00,
2013-06-21 15:16:00,83.8,66.4,30.23,ENE,78,6.0,7.0,56,0.00,,,0.00,551,Wunderground v.1.15,2013-06-21 19:16:00,
2013-06-21 15:22:00,83.6,61.2,30.23,East,92,5.0,7.0,47,0.00,,,0.00,977,Wunderground v.1.15,2013-06-21 19:22:00,
2013-06-21 15:28:00,83.2,62.1,30.23,NE,38,6.0,7.0,49,0.00,,,0.00,723,Wunderground v.1.15,2013-06-21 19:28:00,
2013-06-21 15:30:00,83.4,63.4,30.22,NE,42,6.0,6.0,51,0.00,,,0.00,723,Wunderground v.1.15,2013-06-21 19:30:00,
2013-06-21 15:36:00,83.4,60.4,30.22,NNE,17,5.0,8.0,46,0.00,,,0.00,838,Wunderground v.1.15,2013-06-21 19:36:00,
2013-06-21 15:42:00,83.4,62.8,30.22,NNE,16,6.0,8.0,50,0.00,,,0.00,841,Wunderground v.1.15,2013-06-21 19:42:00,
2013-06-21 15:48:00,83.6,63.6,30.21,East,97,6.0,8.0,51,0.00,,,0.00,841,Wunderground v.1.15,2013-06-21 19:48:00,
2013-06-21 15:52:00,83.8,62.0,30.21,NNE,31,5.0,5.0,48,0.00,,,0.00,788,Wunderground v.1.15,2013-06-21 19:52:00,
2013-06-21 15:58:00,84.0,63.9,30.21,NNE,32,5.0,11.0,51,0.00,,,0.00,787,Wunderground v.1.15,2013-06-21 19:58:00,
2013-06-21 16:04:00,84.3,63.6,30.21,SSW,200,5.0,7.0,50,0.00,,,0.00,779,Wunderground v.1.15,2013-06-21 20:04:00,
2013-06-21 16:10:00,84.7,65.1,30.21,SSE,154,3.0,4.0,52,0.00,,,0.00,781,Wunderground v.1.15,2013-06-21 20:10:00,
2013-06-21 16:14:00,84.7,63.4,30.21,NNE,25,3.0,4.0,49,0.00,,,0.00,792,Wunderground v.1.15,2013-06-21 20:14:00,
2013-06-21 16:20:00,84.3,64.2,30.21,South,181,4.0,5.0,51,0.00,,,0.00,853,Wunderground v.1.15,2013-06-21 20:20:00,
2013-06-21 16:26:00,84.5,64.9,30.21,ENE,72,5.0,6.0,52,0.00,,,0.00,785,Wunderground v.1.15,2013-06-21 20:26:00,
2013-06-21 16:32:00,84.7,65.1,30.21,NE,38,5.0,6.0,52,0.00,,,0.00,758,Wunderground v.1.15,2013-06-21 20:32:00,
2013-06-21 16:38:00,84.9,64.2,30.21,NE,54,5.0,7.0,50,0.00,,,0.00,783,Wunderground v.1.15,2013-06-21 20:38:00,
2013-06-21 16:46:00,84.3,63.6,30.20,NE,51,3.0,4.0,50,0.00,,,0.00,772,Wunderground v.1.15,2013-06-21 20:46:00,
2013-06-21 16:52:00,84.0,65.0,30.20,SE,137,4.0,5.0,53,0.00,,,0.00,646,Wunderground v.1.15,2013-06-21 20:52:00,
2013-06-21 16:58:00,84.0,63.4,30.20,NE,40,4.0,7.0,50,0.00,,,0.00,630,Wunderground v.1.15,2013-06-21 20:58:00,
2013-06-21 17:04:00,84.5,63.2,30.19,East,86,4.0,5.0,49,0.00,,,0.00,618,Wunderground v.1.15,2013-06-21 21:04:00,
2013-06-21 17:10:00,84.7,64.0,30.19,SE,131,3.0,3.0,50,0.00,,,0.00,672,Wunderground v.1.15,2013-06-21 21:10:00,
2013-06-21 17:16:00,84.7,65.1,30.18,NW,313,3.0,10.0,52,0.00,,,0.00,658,Wunderground v.1.15,2013-06-21 21:16:00,
2013-06-21 17:22:00,83.8,63.2,30.18,East,88,5.0,8.0,50,0.00,,,0.00,644,Wunderground v.1.15,2013-06-21 21:22:00,
2013-06-21 17:28:00,83.0,64.1,30.18,SSE,157,5.0,8.0,53,0.00,,,0.00,549,Wunderground v.1.15,2013-06-21 21:28:00,
2013-06-21 17:34:00,83.4,63.4,30.19,ENE,59,4.0,5.0,51,0.00,,,0.00,137,Wunderground v.1.15,2013-06-21 21:34:00,
2013-06-21 17:42:00,83.4,63.4,30.19,East,86,5.0,5.0,51,0.00,,,0.00,530,Wunderground v.1.15,2013-06-21 21:42:00,
2013-06-21 17:48:00,83.4,65.0,30.18,ESE,102,6.0,6.0,54,0.00,,,0.00,461,Wunderground v.1.15,2013-06-21 21:48:00,
2013-06-21 17:54:00,83.2,63.7,30.18,NNE,18,6.0,7.0,52,0.00,,,0.00,442,Wunderground v.1.15,2013-06-21 21:54:00,
2013-06-21 18:00:00,83.8,63.7,30.18,NE,55,4.0,5.0,51,0.00,,,0.00,421,Wunderground v.1.15,2013-06-21 22:00:00,
2013-06-21 18:06:00,84.1,64.0,30.18,East,90,4.0,6.0,51,0.00,,,0.00,403,Wunderground v.1.15,2013-06-21 22:06:00,
2013-06-21 18:12:00,84.5,64.4,30.18,North,6,4.0,4.0,51,0.00,,,0.00,384,Wunderground v.1.15,2013-06-21 22:12:00,
2013-06-21 18:18:00,85.1,64.4,30.18,NE,55,3.0,4.0,50,0.00,,,0.00,366,Wunderground v.1.15,2013-06-21 22:18:00,
2013-06-21 18:24:00,84.9,64.2,30.18,ESE,112,4.0,7.0,50,0.00,,,0.00,347,Wunderground v.1.15,2013-06-21 22:24:00,
2013-06-21 18:30:00,84.9,64.2,30.18,NE,47,6.0,7.0,50,0.00,,,0.00,347,Wunderground v.1.15,2013-06-21 22:30:00,
2013-06-21 18:36:00,84.5,-99.9,30.18,NNE,30,5.0,7.0,255,0.00,,,0.00,347,Wunderground v.1.15,2013-06-21 22:36:00,
2013-06-21 18:42:00,84.5,63.8,30.18,NNE,14,4.0,6.0,50,0.00,,,0.00,347,Wunderground v.1.15,2013-06-21 22:42:00,
2013-06-21 18:48:00,84.5,64.9,30.18,NE,56,4.0,6.0,52,0.00,,,0.00,257,Wunderground v.1.15,2013-06-21 22:48:00,
2013-06-21 18:54:00,84.7,65.1,30.18,North,356,4.0,7.0,52,0.00,,,0.00,239,Wunderground v.1.15,2013-06-21 22:54:00,
2013-06-21 19:00:00,84.3,64.8,30.18,NNE,24,5.0,5.0,52,0.00,,,0.00,220,Wunderground v.1.15,2013-06-21 23:00:00,
2013-06-21 19:06:00,84.3,64.2,30.18,NE,35,5.0,7.0,51,0.00,,,0.00,202,Wunderground v.1.15,2013-06-21 23:06:00,
2013-06-21 19:12:00,84.1,64.6,30.18,North,1,6.0,7.0,52,0.00,,,0.00,187,Wunderground v.1.15,2013-06-21 23:12:00,
2013-06-21 19:18:00,84.0,63.9,30.18,NE,40,5.0,7.0,51,0.00,,,0.00,165,Wunderground v.1.15,2013-06-21 23:18:00,
2013-06-21 19:24:00,83.4,64.5,30.18,ENE,61,5.0,7.0,53,0.00,,,0.00,40,Wunderground v.1.15,2013-06-21 23:24:00,
2013-06-21 19:30:00,82.8,64.5,30.18,NNE,23,5.0,7.0,54,0.00,,,0.00,39,Wunderground v.1.15,2013-06-21 23:30:00,
2013-06-21 19:36:00,82.0,64.8,30.18,ENE,58,4.0,5.0,56,0.00,,,0.00,35,Wunderground v.1.15,2013-06-21 23:36:00,
2013-06-21 19:42:00,81.2,64.5,30.18,NE,37,5.0,6.0,57,0.00,,,0.00,35,Wunderground v.1.15,2013-06-21 23:42:00,
2013-06-21 19:48:00,80.7,64.1,30.17,NE,38,5.0,6.0,57,0.00,,,0.00,32,Wunderground v.1.15,2013-06-21 23:48:00,
2013-06-21 19:54:00,80.3,64.7,30.17,NNE,31,4.0,7.0,59,0.00,,,0.00,28,Wunderground v.1.15,2013-06-21 23:54:00,
2013-06-21 20:01:00,79.9,64.8,30.18,North,357,4.0,5.0,60,0.00,,,0.00,26,Wunderground v.1.15,2013-06-22 00:01:00,
2013-06-21 20:06:00,79.6,65.0,30.18,NNE,30,5.0,5.0,61,0.00,,,0.00,21,Wunderground v.1.15,2013-06-22 00:06:00,
2013-06-21 20:12:00,79.2,65.1,30.18,North,11,4.0,4.0,62,0.00,,,0.00,19,Wunderground v.1.15,2013-06-22 00:12:00,
2013-06-21 20:18:00,78.8,64.7,30.17,NE,49,3.0,7.0,62,0.00,,,0.00,14,Wunderground v.1.15,2013-06-22 00:18:00,
2013-06-21 20:24:00,78.5,64.9,30.17,North,359,3.0,3.0,63,0.00,,,0.00,12,Wunderground v.1.15,2013-06-22 00:24:00,
2013-06-21 20:30:00,78.3,65.1,30.18,NNE,17,3.0,5.0,64,0.00,,,0.00,7,Wunderground v.1.15,2013-06-22 00:30:00,
2013-06-21 20:36:00,77.9,64.7,30.18,NNE,17,2.0,3.0,64,0.00,,,0.00,5,Wunderground v.1.15,2013-06-22 00:36:00,
2013-06-21 20:42:00,77.7,65.0,30.18,NE,37,2.0,2.0,65,0.00,,,0.00,5,Wunderground v.1.15,2013-06-22 00:42:00,
2013-06-21 20:48:00,77.4,64.7,30.18,NE,42,3.0,3.0,65,0.00,,,0.00,0,Wunderground v.1.15,2013-06-22 00:48:00,
2013-06-21 20:54:00,77.0,64.8,30.18,NE,42,3.0,3.0,66,0.00,,,0.00,0,Wunderground v.1.15,2013-06-22 00:54:00,
2013-06-21 21:00:00,76.7,64.9,30.18,NE,42,3.0,4.0,67,0.00,,,0.00,0,Wunderground v.1.15,2013-06-22 01:00:00,
2013-06-21 21:06:00,76.3,65.0,30.18,NE,42,3.0,4.0,68,0.00,,,0.00,0,Wunderground v.1.15,2013-06-22 01:06:00,
2013-06-21 21:12:00,76.1,64.8,30.18,NE,42,2.0,2.0,68,0.00,,,0.00,0,Wunderground v.1.15,2013-06-22 01:12:00,
2013-06-21 21:18:00,75.8,64.9,30.18,NE,42,1.0,2.0,69,0.00,,,0.00,0,Wunderground v.1.15,2013-06-22 01:18:00,
2013-06-21 21:24:00,75.4,64.9,30.18,NE,42,2.0,2.0,70,0.00,,,0.00,0,Wunderground v.1.15,2013-06-22 01:24:00,
2013-06-21 21:30:00,75.3,65.2,30.18,NE,42,2.0,2.0,71,0.00,,,0.00,0,Wunderground v.1.15,2013-06-22 01:30:00,
2013-06-21 21:36:00,74.9,64.9,30.18,NE,42,2.0,3.0,71,0.00,,,0.00,0,Wunderground v.1.15,2013-06-22 01:36:00,
2013-06-21 21:42:00,74.7,65.1,30.18,NE,42,1.0,2.0,72,0.00,,,0.00,0,Wunderground v.1.15,2013-06-22 01:42:00,
2013-06-21 21:48:00,74.4,65.2,30.19,NE,42,1.0,2.0,73,0.00,,,0.00,0,Wunderground v.1.15,2013-06-22 01:48:00,
2013-06-21 21:54:00,74.2,65.0,30.19,NE,42,1.0,2.0,73,0.00,,,0.00,0,Wunderground v.1.15,2013-06-22 01:54:00,
2013-06-21 22:00:00,74.0,65.2,30.19,NE,42,1.0,2.0,74,0.00,,,0.00,0,Wunderground v.1.15,2013-06-22 02:00:00,
2013-06-21 22:06:00,73.9,65.1,30.19,NE,42,1.0,2.0,74,0.00,,,0.00,0,Wunderground v.1.15,2013-06-22 02:06:00,
2013-06-21 22:12:00,73.7,65.3,30.19,NE,42,1.0,2.0,75,0.00,,,0.00,0,Wunderground v.1.15,2013-06-22 02:12:00,
2013-06-21 22:18:00,73.7,65.7,30.20,ENE,72,2.0,5.0,76,0.00,,,0.00,0,Wunderground v.1.15,2013-06-22 02:18:00,
2013-06-21 22:24:00,73.5,65.5,30.20,ENE,72,4.0,6.0,76,0.00,,,0.00,0,Wunderground v.1.15,2013-06-22 02:24:00,
2013-06-21 22:30:00,73.5,65.8,30.20,NE,49,3.0,3.0,77,0.00,,,0.00,0,Wunderground v.1.15,2013-06-22 02:30:00,
2013-06-21 22:36:00,73.3,66.0,30.20,East,80,4.0,5.0,78,0.00,,,0.00,0,Wunderground v.1.15,2013-06-22 02:36:00,
2013-06-21 22:42:00,73.3,66.8,30.20,ESE,106,4.0,5.0,80,0.00,,,0.00,0,Wunderground v.1.15,2013-06-22 02:42:00,
2013-06-21 22:48:00,73.2,67.0,30.20,ENE,78,5.0,5.0,81,0.00,,,0.00,0,Wunderground v.1.15,2013-06-22 02:48:00,
2013-06-21 22:54:00,73.2,67.4,30.20,ESE,106,4.0,4.0,82,0.00,,,0.00,0,Wunderground v.1.15,2013-06-22 02:54:00,
2013-06-21 23:00:00,73.0,67.5,30.20,ENE,61,3.0,3.0,83,0.00,,,0.00,0,Wunderground v.1.15,2013-06-22 03:00:00,
2013-06-21 23:06:00,73.0,67.9,30.20,ENE,66,3.0,4.0,84,0.00,,,0.00,0,Wunderground v.1.15,2013-06-22 03:06:00,
2013-06-21 23:12:00,72.8,67.7,30.20,ENE,76,3.0,4.0,84,0.00,,,0.00,0,Wunderground v.1.15,2013-06-22 03:12:00,
2013-06-21 23:18:00,72.7,67.9,30.19,ENE,65,3.0,5.0,85,0.00,,,0.00,0,Wunderground v.1.15,2013-06-22 03:18:00,
2013-06-21 23:24:00,72.5,67.7,30.19,ENE,73,3.0,4.0,85,0.00,,,0.00,0,Wunderground v.1.15,2013-06-22 03:24:00,
2013-06-21 23:30:00,72.3,67.9,30.20,ENE,72,3.0,3.0,86,0.00,,,0.00,0,Wunderground v.1.15,2013-06-22 03:30:00,
2013-06-21 23:36:00,72.1,67.7,30.20,ENE,72,2.0,3.0,86,0.00,,,0.00,0,Wunderground v.1.15,2013-06-22 03:36:00,
2013-06-21 23:42:00,72.0,67.9,30.20,East,99,2.0,5.0,87,0.00,,,0.00,0,Wunderground v.1.15,2013-06-22 03:42:00,
2013-06-21 23:48:00,72.0,67.9,30.19,NE,47,3.0,5.0,87,0.00,,,0.00,0,Wunderground v.1.15,2013-06-22 03:48:00,
2013-06-21 23:54:00,71.8,68.1,30.19,NE,52,3.0,5.0,88,0.00,,,0.00,0,Wunderground v.1.15,2013-06-22 03:54:00,